Time;durP1;ratioP1;P1;durP2;ratioP2;P2;SDS_P1;SDS_P2;PMS_P1;PMS_P2;Temp;Humidity;BMP_temperature;BMP_pressure;BME280_temperature;BME280_humidity;BME280_pressure;Samples;Min_cycle;Max_cycle;Signal;HPM_P1;HPM_P2
2022/06/25 00:02:07;;;;;;;1.10;1.00;;;25.60;55.60;;;;;;5084157;28;20570;-47
2022/06/25 00:07:45;;;;;;;1.30;1.17;;;25.60;55.50;;;;;;5091429;27;20528;-51
2022/06/25 00:10:26;;;;;;;1.20;1.10;;;25.60;55.60;;;;;;5134040;27;21091;-47
2022/06/25 00:13:07;;;;;;;1.10;1.00;;;25.60;55.50;;;;;;5072295;27;20937;-47
2022/06/25 00:15:48;;;;;;;1.17;1.07;;;25.60;55.60;;;;;;5054830;28;20542;-46
2022/06/25 00:18:29;;;;;;;1.33;1.23;;;25.60;55.60;;;;;;5091444;27;20589;-50
2022/06/25 00:21:09;;;;;;;1.43;1.23;;;25.60;55.60;;;;;;5126842;27;20944;-47
2022/06/25 00:23:49;;;;;;;0.90;0.90;;;25.60;55.50;;;;;;5090134;27;20589;-46
2022/06/25 00:26:29;;;;;;;1.47;1.37;;;25.60;55.50;;;;;;5085295;27;20594;-47
2022/06/25 00:29:10;;;;;;;0.90;0.90;;;25.60;55.50;;;;;;5067399;27;20602;-47
2022/06/25 00:31:52;;;;;;;1.50;1.40;;;25.60;55.60;;;;;;5071951;27;21057;-66
2022/06/25 00:34:33;;;;;;;1.30;1.20;;;25.60;55.40;;;;;;5086745;28;20544;-47
2022/06/25 00:37:15;;;;;;;1.10;1.00;;;25.60;55.50;;;;;;5079551;27;20575;-47
2022/06/25 00:39:56;;;;;;;2.10;1.70;;;25.50;55.40;;;;;;5087678;27;20569;-49
2022/06/25 00:42:36;;;;;;;1.10;1.03;;;25.50;55.30;;;;;;5109595;27;20543;-45
2022/06/25 00:45:18;;;;;;;1.17;1.07;;;25.50;55.20;;;;;;5071434;28;21144;-49
2022/06/25 00:47:58;;;;;;;1.43;1.33;;;25.50;55.50;;;;;;5112882;27;20535;-47
2022/06/25 00:50:38;;;;;;;1.30;1.20;;;25.50;55.50;;;;;;5075500;28;21050;-50
2022/06/25 00:53:21;;;;;;;1.30;1.20;;;25.50;55.60;;;;;;5056167;28;20974;-47
2022/06/25 00:56:05;;;;;;;1.60;1.40;;;25.50;55.60;;;;;;5074649;28;20541;-48
2022/06/25 00:58:46;;;;;;;2.00;1.30;;;25.50;55.50;;;;;;5095128;27;20585;-48
2022/06/25 01:01:28;;;;;;;1.10;1.00;;;25.50;55.50;;;;;;5064914;28;21137;-48
2022/06/25 01:04:09;;;;;;;1.30;1.20;;;25.50;55.50;;;;;;5069068;27;20614;-49
2022/06/25 01:06:50;;;;;;;1.40;1.17;;;25.50;55.60;;;;;;5123109;27;20595;-47
2022/06/25 01:09:32;;;;;;;1.30;1.20;;;25.50;55.60;;;;;;5122401;27;20575;-47
2022/06/25 01:12:13;;;;;;;1.20;1.10;;;25.40;55.50;;;;;;5117645;27;20583;-47
2022/06/25 01:15:03;;;;;;;1.43;1.33;;;25.40;55.40;;;;;;5129722;27;20934;-48
2022/06/25 01:17:45;;;;;;;1.37;1.27;;;25.40;55.50;;;;;;5101760;27;20590;-48
2022/06/25 01:20:27;;;;;;;3.10;1.20;;;25.40;55.60;;;;;;5085327;28;20589;-49
2022/06/25 01:23:08;;;;;;;1.57;1.47;;;25.40;55.60;;;;;;5062121;28;20534;-48
2022/06/25 01:25:49;;;;;;;1.40;1.30;;;25.40;55.60;;;;;;5084232;28;20587;-48
2022/06/25 01:28:29;;;;;;;2.00;1.40;;;25.40;55.50;;;;;;5080438;27;20601;-48
2022/06/25 01:31:10;;;;;;;1.93;1.17;;;25.40;55.60;;;;;;5116822;27;20589;-51
2022/06/25 01:33:50;;;;;;;1.73;1.40;;;25.40;55.60;;;;;;5068114;27;20927;-48
2022/06/25 01:36:30;;;;;;;1.50;1.40;;;25.40;55.60;;;;;;5115607;27;20594;-48
2022/06/25 01:39:10;;;;;;;1.30;1.20;;;25.40;55.50;;;;;;5061961;27;20538;-47
2022/06/25 01:41:48;;;;;;;1.77;1.65;;;25.40;55.40;;;;;;5126372;27;1207813;-48
2022/06/25 01:44:30;;;;;;;1.40;1.30;;;25.40;55.50;;;;;;5099004;27;20531;-48
2022/06/25 01:47:11;;;;;;;1.13;1.03;;;25.40;55.60;;;;;;5075065;28;20584;-49
2022/06/25 01:49:51;;;;;;;1.33;1.20;;;25.30;55.60;;;;;;5130648;27;1211049;-46
2022/06/25 01:52:32;;;;;;;2.33;1.20;;;25.30;55.40;;;;;;5065301;28;20587;-48
2022/06/25 01:55:12;;;;;;;1.63;1.53;;;25.30;55.50;;;;;;5114871;27;20579;-47
2022/06/25 01:57:55;;;;;;;1.40;1.30;;;25.30;55.50;;;;;;5098920;27;20527;-49
2022/06/25 02:00:37;;;;;;;1.40;1.20;;;25.30;55.60;;;;;;5074768;28;20529;-47
2022/06/25 02:03:21;;;;;;;1.87;1.40;;;25.30;55.60;;;;;;5102133;27;20581;-50
2022/06/25 02:06:01;;;;;;;1.60;1.50;;;25.20;55.50;;;;;;5115297;27;21005;-46
2022/06/25 02:08:41;;;;;;;1.33;1.23;;;25.30;55.40;;;;;;5112098;27;20608;-45
2022/06/25 02:11:24;;;;;;;1.80;1.70;;;25.30;55.40;;;;;;5128389;27;20576;-47
2022/06/25 02:14:05;;;;;;;1.67;1.30;;;25.30;55.60;;;;;;5044803;27;20550;-47
2022/06/25 02:16:45;;;;;;;1.63;1.23;;;25.30;55.70;;;;;;5087817;28;20519;-47
2022/06/25 02:19:25;;;;;;;2.10;1.30;;;25.20;55.60;;;;;;5078228;28;20866;-48
2022/06/25 02:22:05;;;;;;;2.30;1.50;;;25.20;55.60;;;;;;5081329;28;20536;-46
2022/06/25 02:24:46;;;;;;;1.63;1.20;;;25.20;55.60;;;;;;5059543;27;20583;-49
2022/06/25 02:27:27;;;;;;;2.87;1.30;;;25.20;55.60;;;;;;5113390;27;21062;-47
2022/06/25 02:30:10;;;;;;;1.23;1.13;;;25.20;55.60;;;;;;5084253;28;20943;-47
2022/06/25 02:32:50;;;;;;;2.13;1.37;;;25.20;55.50;;;;;;5056083;28;20597;-48
2022/06/25 02:35:30;;;;;;;3.10;1.53;;;25.20;55.50;;;;;;5084802;28;21045;-47
2022/06/25 02:38:14;;;;;;;1.53;1.43;;;25.20;55.60;;;;;;5035589;28;20594;-47
2022/06/25 02:40:56;;;;;;;1.47;1.30;;;25.20;55.50;;;;;;5087361;28;20567;-50
2022/06/25 02:43:40;;;;;;;1.20;1.10;;;25.20;55.60;;;;;;5063598;28;21101;-47
2022/06/25 02:46:39;;;;;;;1.30;1.20;;;25.20;55.60;;;;;;5119598;27;20934;-48
2022/06/25 02:49:19;;;;;;;1.13;1.13;;;25.10;56.70;;;;;;5080494;28;20571;-46
2022/06/25 02:51:59;;;;;;;1.50;1.40;;;25.20;55.70;;;;;;5059794;28;20536;-47
2022/06/25 02:54:39;;;;;;;1.40;1.30;;;25.10;55.50;;;;;;5092751;27;20581;-47
2022/06/25 03:00:20;;;;;;;1.40;1.30;;;25.10;55.50;;;;;;5078031;28;20535;-48
2022/06/25 03:03:01;;;;;;;1.20;1.10;;;25.10;55.60;;;;;;5058571;28;20535;-48
2022/06/25 03:05:42;;;;;;;1.37;1.27;;;25.10;55.30;;;;;;5058928;28;20605;-47
2022/06/25 03:08:22;;;;;;;1.90;1.80;;;25.10;55.50;;;;;;5081767;27;20954;-50
2022/06/25 03:11:02;;;;;;;1.30;1.03;;;25.10;55.50;;;;;;5087480;28;20528;-47
2022/06/25 03:13:43;;;;;;;1.50;1.40;;;25.10;55.40;;;;;;5060463;27;20608;-46
2022/06/25 03:16:25;;;;;;;2.60;1.20;;;25.10;55.60;;;;;;5080278;27;20911;-46
2022/06/25 03:19:08;;;;;;;1.20;1.10;;;25.10;55.50;;;;;;5062627;27;20608;-45
2022/06/25 03:22:06;;;;;;;1.57;1.47;;;25.10;55.60;;;;;;5111898;27;20525;-47
2022/06/25 03:24:46;;;;;;;1.63;1.13;;;25.10;55.70;;;;;;5087631;27;20601;-52
2022/06/25 03:27:28;;;;;;;1.30;1.20;;;25.10;55.70;;;;;;5074959;27;20656;-44
2022/06/25 03:30:19;;;;;;;1.70;1.27;;;25.10;55.60;;;;;;5080476;28;20531;-47
2022/06/25 03:33:02;;;;;;;3.30;1.40;;;25.10;55.60;;;;;;5072706;28;20588;-46
2022/06/25 03:36:03;;;;;;;1.13;1.03;;;25.10;55.80;;;;;;5117567;27;20569;-46
2022/06/25 03:38:46;;;;;;;1.33;1.23;;;25.10;55.70;;;;;;5052340;27;20880;-45
2022/06/25 03:41:33;;;;;;;1.23;1.13;;;25.10;55.70;;;;;;5087858;28;20524;-47
2022/06/25 03:44:29;;;;;;;1.50;1.40;;;25.10;55.60;;;;;;5075422;28;20598;-47
2022/06/25 03:47:20;;;;;;;1.67;1.30;;;25.10;55.60;;;;;;5075814;28;20586;-45
2022/06/25 03:50:02;;;;;;;1.40;1.20;;;25.00;55.60;;;;;;5087391;27;20524;-47
2022/06/25 03:52:43;;;;;;;1.47;1.23;;;25.10;55.80;;;;;;5065555;27;20961;-51
2022/06/25 03:55:24;;;;;;;1.27;1.17;;;25.00;55.60;;;;;;5072903;27;20541;-46
2022/06/25 03:58:25;;;;;;;1.53;1.40;;;25.00;55.60;;;;;;5081315;27;21109;-48
2022/06/25 04:01:06;;;;;;;1.60;1.13;;;25.00;55.50;;;;;;5086453;28;20539;-47
2022/06/25 04:03:48;;;;;;;1.40;1.30;;;25.00;55.60;;;;;;5038665;27;20602;-47
2022/06/25 04:06:29;;;;;;;1.43;1.33;;;25.00;55.50;;;;;;5086511;27;20553;-47
2022/06/25 04:09:15;;;;;;;1.80;1.70;;;25.00;55.70;;;;;;5107823;27;20546;-50
2022/06/25 04:11:58;;;;;;;1.50;1.40;;;25.00;55.70;;;;;;5105847;27;20571;-46
2022/06/25 04:14:39;;;;;;;1.60;1.43;;;24.90;55.60;;;;;;5123698;27;1313098;-46
2022/06/25 04:17:20;;;;;;;1.50;1.40;;;25.00;55.60;;;;;;5116427;27;20537;-46
2022/06/25 04:20:02;;;;;;;2.50;1.10;;;24.90;55.50;;;;;;5129743;27;20893;-47
2022/06/25 04:22:42;;;;;;;1.90;1.70;;;24.90;55.60;;;;;;5135268;27;20591;-48
2022/06/25 04:25:24;;;;;;;1.43;1.20;;;24.90;55.50;;;;;;5074663;28;20521;-48
2022/06/25 04:31:06;;;;;;;1.50;1.40;;;24.90;55.60;;;;;;5082238;28;20586;-46
2022/06/25 04:33:47;;;;;;;1.43;1.33;;;24.90;55.60;;;;;;5111347;27;20583;-48
2022/06/25 04:36:29;;;;;;;1.47;1.30;;;24.90;55.70;;;;;;5085727;27;20538;-46
2022/06/25 04:39:17;;;;;;;1.40;1.30;;;24.90;55.60;;;;;;5067609;27;21126;-47
2022/06/25 04:41:59;;;;;;;1.37;1.27;;;24.90;55.70;;;;;;5105817;27;21013;-48
2022/06/25 04:44:42;;;;;;;1.30;1.20;;;24.80;55.50;;;;;;5084785;28;20535;-48
2022/06/25 04:47:24;;;;;;;2.33;1.40;;;24.80;55.60;;;;;;5140316;27;20955;-46
2022/06/25 04:50:15;;;;;;;2.20;0.90;;;24.80;55.60;;;;;;5088541;27;20574;-50
2022/06/25 04:52:56;;;;;;;1.20;1.10;;;24.80;55.70;;;;;;5115495;27;20585;-49
2022/06/25 04:55:38;;;;;;;1.57;1.47;;;24.80;55.70;;;;;;5111878;27;20576;-46
2022/06/25 04:58:19;;;;;;;1.10;1.00;;;24.80;55.70;;;;;;5054175;27;21123;-46
2022/06/25 05:01:23;;;;;;;1.27;1.17;;;24.80;55.70;;;;;;5088422;28;20519;-46
2022/06/25 05:04:05;;;;;;;1.43;1.33;;;24.80;55.70;;;;;;5068622;27;20529;-49
2022/06/25 05:06:46;;;;;;;1.60;1.50;;;24.80;55.70;;;;;;5072464;28;20935;-46
2022/06/25 05:09:28;;;;;;;1.20;1.10;;;24.80;55.70;;;;;;5108441;27;20572;-48
2022/06/25 05:12:09;;;;;;;1.47;1.37;;;24.80;55.70;;;;;;5121265;27;20521;-48
2022/06/25 05:14:52;;;;;;;1.57;1.47;;;24.80;55.70;;;;;;5113391;27;20593;-47
2022/06/25 05:17:32;;;;;;;1.90;1.70;;;24.80;55.70;;;;;;5101196;27;21038;-47
2022/06/25 05:20:13;;;;;;;1.53;1.37;;;24.80;55.60;;;;;;5088505;28;21038;-48
2022/06/25 05:22:54;;;;;;;1.67;1.57;;;24.80;55.60;;;;;;5111265;27;20672;-50
2022/06/25 05:25:36;;;;;;;2.23;1.40;;;24.80;55.60;;;;;;5078062;27;20541;-46
2022/06/25 05:28:17;;;;;;;1.93;1.30;;;24.70;55.50;;;;;;5053102;28;20535;-47
2022/06/25 05:30:57;;;;;;;2.20;1.80;;;24.80;55.60;;;;;;5087009;27;20535;-46
2022/06/25 05:33:37;;;;;;;1.97;1.47;;;24.80;55.40;;;;;;5043637;28;20650;-47
2022/06/25 05:36:18;;;;;;;1.70;1.60;;;24.80;55.40;;;;;;5086735;27;20535;-45
2022/06/25 05:38:59;;;;;;;1.50;1.40;;;24.80;55.40;;;;;;5070103;27;20548;-47
2022/06/25 05:41:39;;;;;;;1.90;1.80;;;24.70;55.10;;;;;;5128329;27;20566;-48
2022/06/25 05:44:19;;;;;;;1.47;1.37;;;24.70;56.20;;;;;;5082260;28;20591;-48
2022/06/25 05:47:00;;;;;;;1.40;1.30;;;24.70;55.10;;;;;;5105825;27;20575;-46
2022/06/25 05:49:42;;;;;;;1.80;1.70;;;24.70;54.80;;;;;;5112311;27;20574;-48
2022/06/25 05:52:23;;;;;;;1.10;1.00;;;24.70;54.80;;;;;;5081580;27;20585;-46
2022/06/25 05:55:06;;;;;;;4.30;1.53;;;24.70;54.70;;;;;;5098086;27;20535;-49
2022/06/25 05:57:46;;;;;;;1.53;1.23;;;24.70;54.50;;;;;;5065173;28;20562;-46
2022/06/25 06:00:27;;;;;;;2.90;1.60;;;24.70;54.60;;;;;;5079217;28;20533;-46
2022/06/25 06:03:09;;;;;;;3.10;1.97;;;24.70;54.60;;;;;;5086813;27;20602;-50
2022/06/25 06:05:50;;;;;;;1.60;1.50;;;24.70;54.80;;;;;;5062647;27;20965;-47
2022/06/25 06:08:30;;;;;;;1.50;1.40;;;24.70;54.80;;;;;;5072161;27;20533;-44
2022/06/25 06:11:10;;;;;;;1.73;1.63;;;24.70;54.70;;;;;;5087863;27;20527;-46
2022/06/25 06:13:51;;;;;;;2.47;1.30;;;24.70;54.50;;;;;;5058423;27;20603;-49
2022/06/25 06:16:33;;;;;;;1.57;1.47;;;24.70;54.30;;;;;;5086640;28;20581;-46
2022/06/25 06:19:14;;;;;;;2.17;1.10;;;24.70;54.20;;;;;;5061151;27;20553;-47
2022/06/25 06:21:54;;;;;;;1.70;1.37;;;24.70;54.10;;;;;;5084627;27;20593;-46
2022/06/25 06:24:35;;;;;;;1.60;1.20;;;24.70;53.70;;;;;;5085026;28;21123;-48
2022/06/25 06:27:17;;;;;;;1.70;1.60;;;24.70;53.70;;;;;;5082650;27;20536;-46
2022/06/25 06:29:58;;;;;;;1.27;1.17;;;24.70;53.70;;;;;;5084766;27;20533;-49
2022/06/25 06:32:40;;;;;;;2.20;1.43;;;24.70;53.60;;;;;;5076834;28;20607;-46
2022/06/25 06:35:20;;;;;;;1.73;1.17;;;24.70;53.70;;;;;;5129929;27;1222741;-48
2022/06/25 06:38:01;;;;;;;2.57;1.90;;;24.70;53.60;;;;;;5057377;28;20951;-46
2022/06/25 06:40:42;;;;;;;2.40;1.53;;;24.70;53.70;;;;;;5087789;27;20515;-47
2022/06/25 06:43:24;;;;;;;1.73;1.40;;;24.70;53.60;;;;;;5062392;27;20546;-49
2022/06/25 06:46:05;;;;;;;2.20;2.00;;;24.60;53.50;;;;;;5077151;27;20579;-47
2022/06/25 06:48:46;;;;;;;2.43;1.40;;;24.70;53.70;;;;;;5039837;28;20594;-49
2022/06/25 06:51:26;;;;;;;2.47;1.33;;;24.70;53.70;;;;;;5084618;27;20915;-48
2022/06/25 06:54:08;;;;;;;2.00;1.57;;;24.60;53.60;;;;;;5068014;27;20533;-49
2022/06/25 06:56:47;;;;;;;1.63;1.53;;;24.70;53.70;;;;;;5117086;27;20534;-50
2022/06/25 06:59:29;;;;;;;3.23;1.57;;;24.70;53.60;;;;;;5073511;27;20537;-51
2022/06/25 07:02:10;;;;;;;2.00;1.30;;;24.70;53.70;;;;;;5079175;27;20660;-48
2022/06/25 07:04:52;;;;;;;4.40;1.30;;;24.70;53.80;;;;;;5119515;27;20560;-48
2022/06/25 07:07:33;;;;;;;1.67;1.17;;;24.70;53.60;;;;;;5049372;28;21139;-47
2022/06/25 07:10:14;;;;;;;1.73;1.60;;;24.70;53.60;;;;;;5085229;27;21024;-45
2022/06/25 07:12:56;;;;;;;1.43;1.30;;;24.60;53.80;;;;;;5100430;27;20598;-49
2022/06/25 07:15:36;;;;;;;1.60;1.50;;;24.60;54.00;;;;;;5108104;27;21118;-47
2022/06/25 07:18:16;;;;;;;1.40;1.30;;;24.70;54.30;;;;;;5069115;28;20542;-47
2022/06/25 07:20:57;;;;;;;1.37;1.27;;;24.70;54.00;;;;;;5078613;28;20933;-46
2022/06/25 07:23:38;;;;;;;2.00;1.33;;;24.70;54.20;;;;;;5058833;27;20538;-48
2022/06/25 07:26:20;;;;;;;1.80;1.53;;;24.70;54.30;;;;;;5128576;27;20668;-47
2022/06/25 07:29:02;;;;;;;1.60;1.50;;;24.70;54.30;;;;;;5047938;27;20541;-48
2022/06/25 07:31:43;;;;;;;1.60;1.50;;;24.70;54.30;;;;;;5079246;28;20533;-48
2022/06/25 07:34:27;;;;;;;6.60;1.50;;;24.60;54.30;;;;;;5092233;27;20553;-46
2022/06/25 07:37:07;;;;;;;1.50;1.40;;;24.60;54.20;;;;;;5116609;27;20587;-47
2022/06/25 07:39:48;;;;;;;1.63;1.53;;;24.70;54.30;;;;;;5067426;28;20532;-46
2022/06/25 07:42:30;;;;;;;1.73;1.37;;;24.70;54.30;;;;;;5064161;28;20960;-46
2022/06/25 07:45:11;;;;;;;2.10;1.27;;;24.60;54.20;;;;;;5078052;28;20597;-48
2022/06/25 07:47:53;;;;;;;2.77;1.47;;;24.70;54.30;;;;;;5107817;27;20591;-46
2022/06/25 07:53:35;;;;;;;1.40;1.30;;;24.60;54.20;;;;;;5066369;28;20601;-49
2022/06/25 07:56:16;;;;;;;2.93;1.50;;;24.60;54.30;;;;;;5076965;28;20524;-65
2022/06/25 07:58:56;;;;;;;2.40;1.50;;;24.60;55.40;;;;;;5065802;27;20614;-47
2022/06/25 08:01:41;;;;;;;1.40;1.30;;;24.60;54.00;;;;;;5115092;27;20543;-48
2022/06/25 08:04:20;;;;;;;1.40;1.30;;;24.60;54.00;;;;;;5065955;27;1246614;-46
2022/06/25 08:07:02;;;;;;;1.20;1.10;;;24.60;53.90;;;;;;5083833;27;20556;-48
2022/06/25 08:09:43;;;;;;;1.43;1.33;;;24.60;53.70;;;;;;5087998;28;20588;-46
2022/06/25 08:12:23;;;;;;;2.70;1.40;;;24.60;53.80;;;;;;5108779;27;21195;-49
2022/06/25 08:15:01;;;;;;;1.50;1.20;;;24.60;53.90;;;;;;5140103;27;1229191;-48
2022/06/25 08:17:42;;;;;;;4.13;1.50;;;24.60;53.90;;;;;;5081441;27;20670;-45
2022/06/25 08:20:22;;;;;;;2.00;1.60;;;24.60;54.00;;;;;;5098987;27;20520;-49
2022/06/25 08:23:04;;;;;;;1.30;1.20;;;24.60;54.00;;;;;;5071793;27;20560;-47
2022/06/25 08:25:45;;;;;;;1.30;1.20;;;24.60;53.90;;;;;;5108331;27;20510;-45
2022/06/25 08:28:26;;;;;;;1.20;1.10;;;24.60;54.00;;;;;;5079727;27;20536;-46
2022/06/25 08:31:07;;;;;;;5.67;2.00;;;24.60;54.00;;;;;;5080844;27;20539;-47
2022/06/25 08:33:48;;;;;;;3.50;1.53;;;24.60;53.20;;;;;;5099564;27;20616;-47
2022/06/25 08:36:31;;;;;;;5.70;1.50;;;24.70;53.70;;;;;;5068238;27;21056;-46
2022/06/25 08:39:12;;;;;;;2.50;1.50;;;24.60;53.50;;;;;;5062066;27;20550;-46
2022/06/25 08:41:54;;;;;;;1.90;1.30;;;24.60;53.50;;;;;;5075559;28;20534;-48
2022/06/25 08:44:35;;;;;;;4.87;1.57;;;24.60;53.50;;;;;;5122481;27;20965;-47
2022/06/25 08:47:18;;;;;;;3.60;1.33;;;24.60;53.50;;;;;;5070634;27;20865;-46
2022/06/25 08:49:59;;;;;;;5.10;1.57;;;24.60;53.60;;;;;;5086731;28;20530;-48
2022/06/25 08:52:40;;;;;;;3.50;1.40;;;24.60;53.60;;;;;;5106590;27;20556;-47
2022/06/25 08:55:32;;;;;;;5.00;1.97;;;24.60;53.60;;;;;;5077716;27;20536;-45
2022/06/25 08:58:14;;;;;;;2.50;1.60;;;24.60;53.70;;;;;;5088452;27;20534;-49
2022/06/25 09:00:56;;;;;;;1.47;1.37;;;24.60;53.60;;;;;;5099361;27;20602;-48
2022/06/25 09:03:39;;;;;;;2.03;1.33;;;24.50;53.50;;;;;;5092796;27;20586;-48
2022/06/25 09:06:21;;;;;;;2.33;1.50;;;24.60;53.70;;;;;;5119053;27;20526;-46
2022/06/25 09:09:11;;;;;;;1.23;1.13;;;24.60;53.50;;;;;;5026664;28;20563;-46
2022/06/25 09:11:56;;;;;;;1.60;1.30;;;24.60;53.60;;;;;;5116217;27;20566;-50
2022/06/25 09:14:39;;;;;;;1.50;1.40;;;24.60;53.50;;;;;;5080320;27;20955;-46
2022/06/25 09:17:21;;;;;;;1.60;1.17;;;24.60;53.50;;;;;;5064421;28;20527;-65
2022/06/25 09:20:03;;;;;;;1.30;1.20;;;24.60;53.60;;;;;;5087400;27;20585;-47
2022/06/25 09:22:53;;;;;;;1.50;1.37;;;24.60;53.50;;;;;;5074460;27;20972;-47
2022/06/25 09:25:37;;;;;;;3.00;1.23;;;24.60;53.60;;;;;;5073552;28;20597;-47
2022/06/25 09:28:30;;;;;;;1.53;1.40;;;24.60;53.60;;;;;;5060635;27;20622;-47
2022/06/25 09:31:10;;;;;;;3.83;1.43;;;24.60;53.60;;;;;;5111769;27;20530;-49
2022/06/25 09:33:52;;;;;;;2.23;1.40;;;24.60;53.50;;;;;;5034469;27;20600;-47
2022/06/25 09:36:33;;;;;;;1.43;1.33;;;24.60;53.50;;;;;;5098041;27;20527;-46
2022/06/25 09:39:14;;;;;;;2.07;1.27;;;24.60;53.60;;;;;;5067572;27;20549;-47
2022/06/25 09:41:59;;;;;;;2.40;1.00;;;24.60;53.60;;;;;;5107799;27;20519;-44
2022/06/25 09:44:39;;;;;;;3.73;1.40;;;24.60;53.60;;;;;;5080439;28;20548;-48
2022/06/25 09:47:19;;;;;;;1.27;1.17;;;24.60;53.50;;;;;;5093726;27;20963;-47
2022/06/25 09:50:06;;;;;;;2.97;1.33;;;24.60;53.50;;;;;;5137673;27;1227937;-47
2022/06/25 09:52:53;;;;;;;1.73;1.00;;;24.60;53.50;;;;;;5059105;28;21055;-47
2022/06/25 09:55:37;;;;;;;1.37;1.27;;;24.60;53.60;;;;;;5068840;28;20958;-47
2022/06/25 09:58:17;;;;;;;1.23;1.13;;;24.60;53.50;;;;;;5069161;28;20537;-48
2022/06/25 10:00:58;;;;;;;1.20;1.10;;;24.60;53.60;;;;;;5104712;27;20594;-49
2022/06/25 10:03:40;;;;;;;1.50;1.40;;;24.60;53.50;;;;;;5064296;28;20607;-46
2022/06/25 10:06:27;;;;;;;1.20;1.10;;;24.60;53.60;;;;;;5087588;28;20526;-65
2022/06/25 10:09:09;;;;;;;1.60;1.27;;;24.60;53.50;;;;;;5068819;27;20606;-48
2022/06/25 10:11:51;;;;;;;2.00;1.40;;;24.60;53.50;;;;;;5121760;27;20924;-46
2022/06/25 10:14:34;;;;;;;3.00;1.20;;;24.60;53.50;;;;;;5099741;27;20548;-47
2022/06/25 10:17:15;;;;;;;1.30;1.10;;;24.60;53.50;;;;;;5107377;27;20947;-47
2022/06/25 10:19:57;;;;;;;1.20;1.07;;;24.60;53.60;;;;;;5080961;27;20527;-48
2022/06/25 10:22:39;;;;;;;1.90;1.07;;;24.60;53.60;;;;;;5038034;28;20552;-45
2022/06/25 10:25:21;;;;;;;2.33;1.42;;;24.60;53.50;;;;;;5136129;27;1210358;-44
2022/06/25 10:28:08;;;;;;;1.47;1.37;;;24.60;53.60;;;;;;5070624;28;20542;-46
2022/06/25 10:30:51;;;;;;;1.93;1.50;;;24.60;53.60;;;;;;5060080;28;20591;-46
2022/06/25 10:33:37;;;;;;;1.20;1.00;;;24.60;53.60;;;;;;5054933;28;20543;-48
2022/06/25 10:36:17;;;;;;;1.40;1.00;;;24.60;53.60;;;;;;5091520;27;20535;-48
2022/06/25 10:38:57;;;;;;;2.20;1.30;;;24.60;54.80;;;;;;5059756;27;20608;-48
2022/06/25 10:44:36;;;;;;;1.40;1.30;;;24.60;53.50;;;;;;5146065;27;20592;-47
2022/06/25 10:47:16;;;;;;;1.60;1.10;;;24.60;53.60;;;;;;5115904;27;20568;-46
2022/06/25 10:50:29;;;;;;;1.20;1.10;;;24.60;53.60;;;;;;5115923;27;20921;-46
2022/06/25 10:53:25;;;;;;;1.50;1.40;;;24.60;53.70;;;;;;5070394;28;20559;-47
2022/06/25 10:56:16;;;;;;;1.37;1.07;;;24.60;53.40;;;;;;5079496;28;20583;-46
2022/06/25 10:58:58;;;;;;;1.17;1.07;;;24.60;53.60;;;;;;5069795;27;20555;-49
2022/06/25 11:01:39;;;;;;;1.43;1.20;;;24.60;53.50;;;;;;5127277;27;20509;-47
2022/06/25 11:04:26;;;;;;;1.20;0.97;;;24.70;53.70;;;;;;5066316;27;20607;-46
2022/06/25 11:07:11;;;;;;;1.10;1.00;;;24.60;53.60;;;;;;5103083;27;20530;-47
2022/06/25 11:09:56;;;;;;;1.20;1.10;;;24.70;53.70;;;;;;5128481;27;20927;-47
2022/06/25 11:12:38;;;;;;;1.30;1.20;;;24.60;53.60;;;;;;5111088;27;20533;-46
2022/06/25 11:15:18;;;;;;;2.00;1.20;;;24.70;53.70;;;;;;5096519;27;20605;-47
2022/06/25 11:18:06;;;;;;;1.60;1.30;;;24.60;54.80;;;;;;5102254;27;20583;-46
2022/06/25 11:20:47;;;;;;;1.30;1.20;;;24.70;53.60;;;;;;5085542;28;21051;-46
2022/06/25 11:23:28;;;;;;;1.50;1.40;;;24.70;53.70;;;;;;5115014;27;20579;-47
2022/06/25 11:29:09;;;;;;;1.40;1.30;;;24.70;53.70;;;;;;5047015;27;20542;-48
2022/06/25 11:31:50;;;;;;;1.23;1.13;;;24.60;53.50;;;;;;5113334;27;20536;-46
2022/06/25 11:34:32;;;;;;;1.30;1.20;;;24.70;53.70;;;;;;5089597;27;20536;-48
2022/06/25 11:37:13;;;;;;;2.70;1.00;;;24.70;53.60;;;;;;5081727;27;20557;-47
2022/06/25 11:39:54;;;;;;;1.40;1.27;;;24.70;53.60;;;;;;5116492;27;21102;-47
2022/06/25 11:42:35;;;;;;;1.17;1.07;;;24.70;53.70;;;;;;5077595;28;20533;-47
2022/06/25 11:45:17;;;;;;;1.40;1.30;;;24.70;53.60;;;;;;5081057;28;20573;-46
2022/06/25 11:47:58;;;;;;;1.10;0.93;;;24.70;53.70;;;;;;5093606;27;21070;-45
2022/06/25 11:50:39;;;;;;;1.20;1.10;;;24.70;53.60;;;;;;5075957;27;20601;-47
2022/06/25 11:53:21;;;;;;;1.73;1.00;;;24.70;53.70;;;;;;5092347;27;20541;-47
2022/06/25 11:56:05;;;;;;;1.20;1.10;;;24.70;53.70;;;;;;5106910;27;20534;-49
2022/06/25 11:58:46;;;;;;;1.40;1.30;;;24.70;53.70;;;;;;5077387;27;20959;-45
2022/06/25 12:01:30;;;;;;;1.43;1.20;;;24.70;53.60;;;;;;5100054;27;20531;-48
2022/06/25 12:04:11;;;;;;;1.97;1.37;;;24.70;53.70;;;;;;5060316;27;20549;-47
2022/06/25 12:06:53;;;;;;;1.97;1.37;;;24.70;54.80;;;;;;5085827;27;20535;-47
2022/06/25 12:09:34;;;;;;;1.40;1.30;;;24.70;53.60;;;;;;5093919;27;20899;-47
2022/06/25 12:12:17;;;;;;;1.40;1.27;;;24.70;53.70;;;;;;5084289;27;20520;-45
2022/06/25 12:15:01;;;;;;;1.17;1.10;;;24.70;53.70;;;;;;5132879;27;20551;-48
2022/06/25 12:17:43;;;;;;;1.30;1.07;;;24.70;53.60;;;;;;5108348;27;20607;-47
2022/06/25 12:20:23;;;;;;;1.50;1.38;;;24.70;53.60;;;;;;5138010;27;1215009;-47
2022/06/25 12:23:04;;;;;;;1.70;1.60;;;24.70;53.70;;;;;;5072182;27;20539;-47
2022/06/25 12:25:48;;;;;;;1.30;1.20;;;24.70;53.60;;;;;;5071238;28;20593;-47
2022/06/25 12:28:39;;;;;;;1.30;1.20;;;24.70;53.60;;;;;;5062746;27;20601;-51
2022/06/25 12:31:21;;;;;;;2.57;1.50;;;24.70;53.70;;;;;;5087721;28;20524;-48
2022/06/25 12:34:02;;;;;;;1.47;1.37;;;24.70;53.60;;;;;;5048680;27;20607;-49
2022/06/25 12:36:42;;;;;;;1.93;1.40;;;24.80;53.70;;;;;;5124912;27;20653;-48
2022/06/25 12:39:34;;;;;;;1.20;1.10;;;24.80;53.70;;;;;;5065580;27;20557;-46
2022/06/25 12:42:15;;;;;;;1.40;1.30;;;24.70;54.80;;;;;;5132615;27;20512;-50
2022/06/25 12:44:57;;;;;;;1.27;1.17;;;24.80;53.70;;;;;;5103424;27;20543;-47
2022/06/25 12:47:42;;;;;;;1.30;1.20;;;24.70;54.80;;;;;;5084891;27;20709;-48
2022/06/25 12:50:24;;;;;;;1.20;1.10;;;24.80;53.70;;;;;;5090885;27;20522;-47
2022/06/25 12:53:10;;;;;;;1.63;1.20;;;24.80;53.70;;;;;;5092554;27;20537;-48
2022/06/25 12:55:52;;;;;;;2.10;1.60;;;24.80;53.70;;;;;;5049618;27;20569;-47
2022/06/25 12:58:37;;;;;;;1.30;1.10;;;24.80;53.70;;;;;;5105442;27;20568;-50
2022/06/25 13:01:23;;;;;;;1.30;1.20;;;24.80;53.70;;;;;;5104266;27;21382;-47
2022/06/25 13:04:04;;;;;;;1.17;1.07;;;24.80;53.70;;;;;;5054996;27;20546;-48
2022/06/25 13:06:44;;;;;;;1.43;1.33;;;24.80;53.70;;;;;;5085988;27;20556;-47
2022/06/25 13:09:31;;;;;;;1.37;1.27;;;24.80;53.70;;;;;;5088225;28;20578;-66
2022/06/25 13:12:12;;;;;;;1.20;1.10;;;24.80;53.70;;;;;;5143302;27;20532;-50
2022/06/25 13:14:53;;;;;;;1.33;1.23;;;24.80;53.80;;;;;;5082581;28;20547;-51
2022/06/25 13:17:35;;;;;;;1.40;1.30;;;24.80;53.70;;;;;;5117317;27;20665;-45
2022/06/25 13:20:16;;;;;;;1.20;1.10;;;24.80;53.70;;;;;;5102243;27;20708;-51
2022/06/25 13:22:57;;;;;;;1.20;1.10;;;24.80;53.70;;;;;;5070604;27;20533;-46
2022/06/25 13:25:38;;;;;;;1.60;1.03;;;24.90;53.80;;;;;;5068936;28;20542;-47
2022/06/25 13:28:25;;;;;;;1.67;1.50;;;24.80;53.70;;;;;;5095458;27;20543;-47
2022/06/25 13:31:06;;;;;;;1.17;1.07;;;24.90;53.80;;;;;;5068503;27;20590;-48
2022/06/25 13:33:47;;;;;;;2.27;1.40;;;24.90;53.80;;;;;;5056702;27;21595;-47
2022/06/25 13:36:29;;;;;;;1.43;1.30;;;24.90;53.90;;;;;;5082077;27;20870;-47
2022/06/25 13:39:10;;;;;;;1.70;1.17;;;24.90;53.80;;;;;;5064600;27;20552;-48
2022/06/25 13:41:52;;;;;;;1.30;1.20;;;24.90;53.80;;;;;;5116465;27;20613;-47
2022/06/25 13:44:34;;;;;;;1.37;1.27;;;24.90;54.10;;;;;;5074892;28;20555;-49
2022/06/25 13:47:16;;;;;;;1.07;0.97;;;24.90;53.80;;;;;;5122445;27;20574;-50
2022/06/25 13:49:57;;;;;;;1.10;1.00;;;24.90;55.00;;;;;;5115800;27;20503;-47
2022/06/25 13:52:39;;;;;;;1.10;1.00;;;24.90;53.70;;;;;;5051089;28;20402;-46
2022/06/25 13:55:20;;;;;;;1.83;1.40;;;24.90;53.80;;;;;;5128592;27;20574;-49
2022/06/25 13:58:00;;;;;;;1.20;1.10;;;24.90;53.70;;;;;;5076435;27;20594;-50
2022/06/25 14:00:40;;;;;;;1.47;0.93;;;24.90;53.70;;;;;;5083475;28;20601;-47
2022/06/25 14:03:21;;;;;;;1.20;1.10;;;24.90;53.60;;;;;;5053513;27;20978;-47
2022/06/25 14:06:02;;;;;;;1.57;1.30;;;24.90;53.70;;;;;;5114248;27;20603;-48
2022/06/25 14:08:43;;;;;;;1.40;1.30;;;24.90;53.80;;;;;;5055518;28;20684;-48
2022/06/25 14:11:24;;;;;;;1.83;1.27;;;24.90;53.70;;;;;;5072567;28;20579;-47
2022/06/25 14:14:05;;;;;;;1.50;1.40;;;24.90;53.50;;;;;;5071109;27;20559;-48
2022/06/25 14:16:47;;;;;;;1.33;1.23;;;24.90;53.70;;;;;;5067656;27;20571;-49
2022/06/25 14:19:28;;;;;;;1.43;1.33;;;24.90;53.80;;;;;;5073975;27;20524;-49
2022/06/25 14:22:08;;;;;;;1.93;1.13;;;24.90;53.70;;;;;;5075752;28;20583;-45